Time;durP1;ratioP1;P1;durP2;ratioP2;P2;SDS_P1;SDS_P2;PMS_P1;PMS_P2;Temp;Humidity;BMP_temperature;BMP_pressure;BME280_temperature;BME280_humidity;BME280_pressure;Samples;Min_cycle;Max_cycle;Signal;HPM_P1;HPM_P2
2022/07/07 00:01:11;;;;;;;2.58;2.38;;;;;;;17.66;67.13;99229.16;5023503;28;20029;-79
2022/07/07 00:03:37;;;;;;;3.25;2.28;;;;;;;17.57;67.74;99218.16;5028178;28;20099;-79
2022/07/07 00:06:02;;;;;;;8.50;2.83;;;;;;;17.66;67.27;99227.25;5024147;28;20041;-78
2022/07/07 00:08:28;;;;;;;4.72;2.72;;;;;;;17.66;68.29;99231.84;5022210;28;20477;-79
2022/07/07 00:10:54;;;;;;;4.55;2.55;;;;;;;17.60;67.67;99220.31;5026944;28;20048;-79
2022/07/07 00:13:20;;;;;;;3.90;2.65;;;;;;;17.50;67.97;99214.16;5008808;28;20033;-79
2022/07/07 00:15:45;;;;;;;3.72;2.60;;;;;;;17.48;68.14;99211.75;5022230;28;20083;-79
2022/07/07 00:18:15;;;;;;;5.20;2.50;;;;;;;17.45;68.19;99209.59;5022442;28;21566;-79
2022/07/07 00:20:41;;;;;;;4.38;2.95;;;;;;;17.45;68.24;99198.81;5021171;28;20038;-79
2022/07/07 00:23:06;;;;;;;4.10;2.55;;;;;;;17.42;68.55;99199.38;4989612;28;20029;-79
2022/07/07 00:25:32;;;;;;;3.75;2.72;;;;;;;17.52;67.82;99215.50;5007381;28;20029;-79
2022/07/07 00:27:57;;;;;;;5.53;2.95;;;;;;;17.22;68.47;99203.06;5021264;28;20021;-79
2022/07/07 00:30:22;;;;;;;3.50;3.00;;;;;;;17.45;67.89;99193.41;5024904;28;20484;-78
2022/07/07 00:32:48;;;;;;;7.85;3.03;;;;;;;17.35;68.09;99179.22;5021427;28;20042;-79
2022/07/07 00:35:14;;;;;;;3.38;2.70;;;;;;;17.23;68.26;99176.91;4998959;28;20030;-78
2022/07/07 00:37:39;;;;;;;5.63;2.50;;;;;;;17.49;67.79;99191.78;5023285;28;20388;-79
2022/07/07 00:40:05;;;;;;;5.75;3.05;;;;;;;17.42;68.39;99179.69;5025892;28;20685;-79
2022/07/07 00:42:31;;;;;;;4.18;3.08;;;;;;;17.50;68.17;99163.72;5025660;28;20021;-79
2022/07/07 00:44:56;;;;;;;3.13;2.70;;;;;;;17.53;68.17;99175.84;5008203;28;20489;-79
2022/07/07 00:47:22;;;;;;;6.07;2.55;;;;;;;17.42;68.13;99155.41;5022918;28;20048;-79
2022/07/07 00:49:47;;;;;;;5.10;2.72;;;;;;;17.42;68.16;99163.50;5022633;28;20083;-79
2022/07/07 00:52:13;;;;;;;6.30;3.20;;;;;;;17.37;68.61;99144.66;5006755;28;20112;-78
2022/07/07 00:54:39;;;;;;;5.00;2.88;;;;;;;17.45;68.24;99144.81;5025080;28;20037;-78
2022/07/07 00:57:05;;;;;;;4.13;2.88;;;;;;;17.36;68.65;99141.16;5026282;28;20044;-79
2022/07/07 00:59:33;;;;;;;5.80;2.95;;;;;;;17.44;68.41;99148.63;5024799;28;20507;-78
2022/07/07 01:01:58;;;;;;;4.95;3.05;;;;;;;17.29;68.36;99139.88;5025228;28;20062;-79
2022/07/07 01:04:24;;;;;;;5.90;3.80;;;;;;;17.26;68.45;99133.16;5027920;28;20033;-79
2022/07/07 01:06:50;;;;;;;3.90;2.90;;;;;;;17.31;68.52;99149.31;5028379;28;20025;-79
2022/07/07 01:09:16;;;;;;;4.18;3.47;;;;;;;17.34;68.60;99151.44;5032257;28;20075;-79
2022/07/07 01:11:54;;;;;;;4.85;4.05;;;;;;;17.05;68.89;99156.00;5029923;28;20036;-79
2022/07/07 01:14:20;;;;;;;4.70;3.60;;;;;;;17.16;68.86;99149.44;5030465;28;20029;-79
2022/07/07 01:16:47;;;;;;;5.75;4.15;;;;;;;16.93;69.40;99150.16;5030456;28;20033;-79
2022/07/07 01:19:13;;;;;;;6.32;3.97;;;;;;;17.00;69.24;99143.38;5027379;28;20026;-79
2022/07/07 01:21:54;;;;;;;6.00;3.72;;;;;;;17.07;69.18;99137.66;5029119;28;20033;-79
2022/07/07 01:24:22;;;;;;;7.22;3.70;;;;;;;17.11;69.16;99131.41;5030912;28;20044;-79
2022/07/07 01:26:47;;;;;;;7.70;3.58;;;;;;;17.08;69.33;99131.19;5013718;28;20039;-79
2022/07/07 01:29:13;;;;;;;9.98;4.10;;;;;;;17.15;69.41;99148.63;5006152;28;20385;-79
2022/07/07 01:31:39;;;;;;;5.53;4.20;;;;;;;16.84;69.60;99133.00;5029322;28;20038;-79
2022/07/07 01:34:04;;;;;;;8.02;3.90;;;;;;;16.91;69.44;99128.06;5030031;28;20025;-79
2022/07/07 01:36:30;;;;;;;5.70;3.70;;;;;;;16.97;69.26;99129.66;5010909;28;20087;-79
2022/07/07 01:38:56;;;;;;;4.13;3.58;;;;;;;16.92;70.14;99133.22;5030347;28;20411;-79
2022/07/07 01:41:21;;;;;;;4.78;3.85;;;;;;;17.04;68.77;99135.50;5031593;28;20405;-79
2022/07/07 01:43:46;;;;;;;8.23;3.50;;;;;;;17.07;68.87;99135.78;5030088;28;20041;-79
2022/07/07 01:46:13;;;;;;;7.40;3.78;;;;;;;16.98;68.91;99133.94;5015318;28;20049;-79
2022/07/07 01:48:39;;;;;;;4.15;3.63;;;;;;;16.89;69.61;99133.75;4997363;28;20040;-79
2022/07/07 01:51:05;;;;;;;6.07;3.90;;;;;;;16.93;68.93;99125.91;5027354;28;20033;-79
2022/07/07 01:53:30;;;;;;;4.13;3.53;;;;;;;16.89;68.09;99122.16;5027936;28;20030;-79
2022/07/07 01:56:02;;;;;;;5.85;4.03;;;;;;;16.83;68.01;99117.91;4996190;28;20120;-79
2022/07/07 01:58:27;;;;;;;4.15;3.85;;;;;;;16.69;68.65;99108.84;5031372;28;20041;-78
2022/07/07 02:00:53;;;;;;;6.72;4.00;;;;;;;16.74;68.66;99119.59;5012789;28;20481;-79
2022/07/07 02:03:18;;;;;;;5.75;4.63;;;;;;;16.60;68.68;99110.56;5045351;28;20481;-79
2022/07/07 02:05:43;;;;;;;8.93;4.60;;;;;;;16.66;69.05;99110.22;5028440;28;20486;-79
2022/07/07 02:08:09;;;;;;;7.63;4.63;;;;;;;16.63;69.51;99100.00;5029647;28;20103;-81
2022/07/07 02:13:18;;;;;;;6.40;4.90;;;;;;;16.49;70.39;99093.59;5016166;28;20224;-79
2022/07/07 02:15:44;;;;;;;10.80;5.00;;;;;;;16.64;70.26;99103.50;5009511;28;20061;-79
2022/07/07 02:18:09;;;;;;;6.65;5.80;;;;;;;16.49;70.93;99098.97;5027468;28;20363;-79
2022/07/07 02:20:34;;;;;;;6.20;5.13;;;;;;;16.49;71.51;99096.28;5028333;28;20035;-79
2022/07/07 02:23:00;;;;;;;6.93;5.93;;;;;;;16.55;71.58;99081.75;5026372;28;20463;-79
2022/07/07 02:25:25;;;;;;;10.73;7.78;;;;;;;16.33;71.99;99094.81;5027034;28;20113;-79
2022/07/07 02:27:53;;;;;;;10.40;5.82;;;;;;;16.31;72.70;99099.66;5034740;28;20520;-79
2022/07/07 02:30:18;;;;;;;7.78;6.13;;;;;;;16.62;71.41;99105.69;5027615;28;20042;-79
2022/07/07 02:32:43;;;;;;;7.95;6.07;;;;;;;16.38;72.33;99086.69;5020049;28;20103;-79
2022/07/07 02:35:09;;;;;;;8.75;5.97;;;;;;;16.52;72.21;99087.69;5009817;28;20543;-79
2022/07/07 02:37:34;;;;;;;6.63;5.93;;;;;;;16.38;72.26;99073.22;5006104;28;20124;-79
2022/07/07 02:40:00;;;;;;;7.32;5.10;;;;;;;16.58;71.67;99085.78;5008994;28;20473;-79
2022/07/07 02:42:25;;;;;;;6.80;5.60;;;;;;;16.65;72.05;99088.94;5008363;28;20079;-79
2022/07/07 02:44:50;;;;;;;8.38;6.18;;;;;;;16.69;72.02;99096.19;5027612;28;20459;-79
2022/07/07 02:47:16;;;;;;;8.20;6.20;;;;;;;16.63;72.29;99094.63;5024764;28;20034;-79
2022/07/07 02:49:41;;;;;;;7.97;5.65;;;;;;;16.73;72.65;99093.75;5027884;28;20033;-79
2022/07/07 02:52:07;;;;;;;7.03;5.88;;;;;;;16.64;72.35;99079.25;5007401;28;20042;-79
2022/07/07 02:54:32;;;;;;;7.55;5.85;;;;;;;16.63;72.50;99073.06;5024936;28;20048;-79
2022/07/07 02:56:57;;;;;;;9.02;6.82;;;;;;;16.64;72.61;99076.56;5026186;28;20037;-79
2022/07/07 02:59:23;;;;;;;8.70;6.63;;;;;;;16.58;72.92;99078.47;5024775;28;20142;-79
2022/07/07 03:01:48;;;;;;;8.73;6.72;;;;;;;16.54;72.54;99082.00;5023650;28;20106;-79
2022/07/07 03:04:13;;;;;;;6.45;5.88;;;;;;;16.69;73.09;99071.91;5025836;28;20481;-79
2022/07/07 03:06:39;;;;;;;8.60;6.38;;;;;;;16.70;72.80;99070.03;5024866;28;20048;-78
2022/07/07 03:09:04;;;;;;;7.50;6.35;;;;;;;16.90;72.30;99075.25;5026996;28;20036;-79
2022/07/07 03:11:29;;;;;;;8.02;6.80;;;;;;;16.89;72.53;99069.03;5007342;28;20477;-79
2022/07/07 03:13:55;;;;;;;7.47;6.22;;;;;;;16.91;72.16;99064.16;5022495;28;20404;-79
2022/07/07 03:16:20;;;;;;;9.63;7.35;;;;;;;16.93;72.12;99062.00;5025162;28;20045;-79
2022/07/07 03:18:46;;;;;;;8.23;6.10;;;;;;;16.86;72.59;99058.03;5021941;28;20104;-79
2022/07/07 03:21:11;;;;;;;10.60;6.18;;;;;;;16.75;72.95;99045.72;5018907;28;20033;-78
2022/07/07 03:23:36;;;;;;;7.22;6.22;;;;;;;16.70;72.88;99057.38;4992165;28;20623;-79
2022/07/07 03:26:02;;;;;;;7.72;6.13;;;;;;;16.72;72.82;99035.50;5023956;28;20083;-79
2022/07/07 03:28:27;;;;;;;6.57;5.97;;;;;;;16.73;73.12;99045.22;5037156;28;20037;-79
2022/07/07 03:30:52;;;;;;;7.07;6.40;;;;;;;16.80;73.14;99045.66;5010751;28;20090;-78
2022/07/07 03:33:18;;;;;;;7.18;5.97;;;;;;;16.75;73.31;99045.72;5027736;28;20159;-78
2022/07/07 03:35:43;;;;;;;6.18;5.55;;;;;;;16.78;73.21;99027.09;5022049;28;20037;-79
2022/07/07 03:38:09;;;;;;;8.13;5.90;;;;;;;16.87;73.20;99038.06;5007250;28;20117;-79
2022/07/07 03:40:34;;;;;;;8.88;6.35;;;;;;;16.84;73.05;99028.63;5025645;28;20037;-79
2022/07/07 03:43:00;;;;;;;8.30;6.32;;;;;;;16.74;73.58;99031.44;5022217;28;20474;-79
2022/07/07 03:45:25;;;;;;;6.40;5.80;;;;;;;16.80;73.93;99032.19;5005226;28;20040;-79
2022/07/07 03:47:50;;;;;;;7.78;6.53;;;;;;;16.68;74.06;99029.88;5018147;28;20393;-79
2022/07/07 03:50:16;;;;;;;6.95;6.00;;;;;;;16.83;73.83;99028.94;5021289;28;20034;-79
2022/07/07 03:52:41;;;;;;;6.80;6.03;;;;;;;16.89;73.49;99014.31;5025450;28;20034;-79
2022/07/07 03:55:08;;;;;;;11.10;6.13;;;;;;;16.85;73.39;99018.66;4994291;28;20049;-78
2022/07/07 03:57:34;;;;;;;6.20;5.72;;;;;;;16.67;73.24;99008.59;5024006;28;20041;-78
2022/07/07 03:59:59;;;;;;;10.25;5.32;;;;;;;16.31;73.92;99016.97;5027353;28;20116;-78
2022/07/07 04:02:25;;;;;;;9.95;6.15;;;;;;;16.38;73.62;99005.88;5023729;28;20120;-79
2022/07/07 04:04:50;;;;;;;7.47;4.85;;;;;;;16.64;73.36;99006.47;5004858;28;20374;-79
2022/07/07 04:07:15;;;;;;;5.78;5.18;;;;;;;16.43;72.77;98992.34;5005220;28;20071;-79
2022/07/07 04:09:41;;;;;;;6.15;5.10;;;;;;;16.49;73.44;98999.28;4993803;28;20113;-78
2022/07/07 04:12:07;;;;;;;7.57;5.15;;;;;;;16.43;72.34;98990.47;5047491;28;20032;-79
2022/07/07 04:14:32;;;;;;;6.85;4.93;;;;;;;16.37;73.62;99005.06;5029460;28;20037;-79
2022/07/07 04:16:58;;;;;;;5.20;4.70;;;;;;;16.36;73.15;98976.50;5044192;28;20124;-78
2022/07/07 04:19:23;;;;;;;11.95;5.18;;;;;;;16.72;72.54;98998.59;5026306;28;20044;-78
2022/07/07 04:21:48;;;;;;;6.75;5.63;;;;;;;16.29;74.22;98964.47;5030664;28;20476;-79
2022/07/07 04:24:14;;;;;;;7.10;5.13;;;;;;;16.47;73.75;98990.69;5030207;28;20040;-79
2022/07/07 04:26:39;;;;;;;5.32;4.75;;;;;;;16.60;72.86;98986.56;5029182;28;20033;-78
2022/07/07 04:29:05;;;;;;;5.95;4.90;;;;;;;16.57;73.43;98989.84;5042023;28;20209;-78
2022/07/07 04:31:30;;;;;;;10.68;6.68;;;;;;;16.09;74.81;98973.50;5028030;28;20025;-78
2022/07/07 04:33:55;;;;;;;5.47;4.68;;;;;;;16.52;73.53;98968.31;5032706;28;20091;-78
2022/07/07 04:36:21;;;;;;;7.30;4.88;;;;;;;16.42;73.80;98969.97;5029623;28;20057;-79
2022/07/07 04:38:46;;;;;;;10.80;5.93;;;;;;;16.47;73.37;98961.84;5035162;28;20034;-78
2022/07/07 04:41:12;;;;;;;6.25;5.65;;;;;;;16.63;72.89;98969.81;5030417;28;20052;-79
2022/07/07 04:43:37;;;;;;;9.73;5.32;;;;;;;16.43;73.21;98957.31;5021772;28;20091;-78
2022/07/07 04:46:02;;;;;;;6.40;5.80;;;;;;;15.95;75.25;98956.38;5022527;28;20083;-78
2022/07/07 04:48:28;;;;;;;9.85;5.60;;;;;;;16.30;73.85;98952.59;5041737;28;20038;-78
2022/07/07 04:50:53;;;;;;;6.80;5.60;;;;;;;16.20;74.28;98956.19;5012187;28;20028;-81
2022/07/07 04:53:19;;;;;;;8.55;5.50;;;;;;;16.66;73.32;98966.56;5016407;28;20220;-80
2022/07/07 04:55:44;;;;;;;7.65;5.97;;;;;;;16.29;75.05;98959.06;5032845;28;20674;-81
2022/07/07 04:58:10;;;;;;;9.68;5.75;;;;;;;16.32;74.75;98955.78;5034005;28;20043;-80
2022/07/07 05:00:35;;;;;;;5.18;4.72;;;;;;;16.61;73.98;98961.22;5026609;28;20112;-80
2022/07/07 05:03:00;;;;;;;7.13;5.07;;;;;;;16.45;74.57;98961.34;5022741;28;20433;-80
2022/07/07 05:05:26;;;;;;;6.63;5.53;;;;;;;16.32;74.81;98940.44;5023471;28;20033;-80
2022/07/07 05:07:51;;;;;;;6.22;5.63;;;;;;;16.28;75.39;98952.88;5020712;28;20033;-80
2022/07/07 05:10:16;;;;;;;5.88;5.22;;;;;;;16.51;74.25;98954.06;5004368;28;20108;-80
2022/07/07 05:12:42;;;;;;;11.70;5.63;;;;;;;16.34;75.11;98961.69;4991104;28;20041;-80
2022/07/07 05:15:07;;;;;;;6.93;4.93;;;;;;;16.37;74.61;98958.47;5019168;28;20085;-80
2022/07/07 05:17:33;;;;;;;6.65;4.68;;;;;;;16.34;74.49;98949.03;5027346;28;20500;-80
2022/07/07 05:19:58;;;;;;;13.40;6.65;;;;;;;16.12;75.96;98956.75;5025322;28;20042;-81
2022/07/07 05:22:24;;;;;;;5.47;4.82;;;;;;;16.15;74.91;98950.84;5020505;28;20044;-81
2022/07/07 05:24:49;;;;;;;6.47;3.90;;;;;;;16.33;73.88;98946.66;5024399;28;20033;-81
2022/07/07 05:27:15;;;;;;;7.25;3.95;;;;;;;16.25;74.45;98953.44;5008492;28;20040;-81
2022/07/07 05:29:41;;;;;;;4.97;4.00;;;;;;;16.40;74.11;98947.13;5010454;28;20055;-80
2022/07/07 05:32:06;;;;;;;12.10;3.85;;;;;;;15.91;75.80;98931.09;5025886;28;20037;-80
2022/07/07 05:34:32;;;;;;;11.10;4.22;;;;;;;16.37;73.76;98942.28;5026523;28;20027;-81
2022/07/07 05:36:57;;;;;;;4.43;4.03;;;;;;;15.68;77.06;98935.28;5026892;28;20033;-80
2022/07/07 05:39:24;;;;;;;8.50;4.60;;;;;;;15.70;77.91;98935.81;5025987;28;20036;-81
2022/07/07 05:41:49;;;;;;;9.50;4.32;;;;;;;16.06;75.69;98944.44;5025399;28;20033;-81
2022/07/07 05:44:15;;;;;;;13.32;5.00;;;;;;;16.11;75.93;98941.72;5006430;28;20079;-81
2022/07/07 05:46:40;;;;;;;8.40;6.35;;;;;;;15.81;77.12;98922.28;5028764;28;20037;-81
2022/07/07 05:49:05;;;;;;;9.18;3.92;;;;;;;16.15;75.65;98950.03;5019633;28;20026;-81
2022/07/07 05:51:31;;;;;;;10.48;6.45;;;;;;;16.07;76.75;98937.97;5030057;28;20160;-81
2022/07/07 05:53:56;;;;;;;6.50;3.88;;;;;;;16.22;75.51;98940.53;5013581;28;20400;-81
2022/07/07 05:56:22;;;;;;;5.97;3.83;;;;;;;16.43;73.65;98927.69;5013360;28;20044;-82
2022/07/07 05:58:47;;;;;;;6.85;6.15;;;;;;;16.03;77.85;98944.22;5027710;28;20045;-81
2022/07/07 06:01:13;;;;;;;6.28;3.95;;;;;;;16.22;75.31;98926.25;5011407;28;20452;-81
2022/07/07 06:03:39;;;;;;;7.70;4.80;;;;;;;16.66;73.87;98931.53;5031391;28;20055;-81
2022/07/07 06:06:04;;;;;;;7.70;3.85;;;;;;;16.76;73.29;98926.03;5028608;28;20087;-81
2022/07/07 06:08:30;;;;;;;8.57;4.45;;;;;;;16.61;74.12;98920.78;5030922;28;20087;-81
2022/07/07 06:10:55;;;;;;;4.57;4.00;;;;;;;16.82;73.13;98931.06;5027156;28;20398;-81
2022/07/07 06:13:21;;;;;;;5.95;4.50;;;;;;;16.53;74.75;98934.91;5024238;28;20026;-81
2022/07/07 06:15:46;;;;;;;5.40;4.50;;;;;;;16.62;74.24;98919.72;5029414;28;20040;-81
2022/07/07 06:18:12;;;;;;;5.95;4.60;;;;;;;16.75;74.16;98937.91;5027402;28;20033;-81
2022/07/07 06:20:37;;;;;;;7.53;6.72;;;;;;;16.59;75.98;98929.19;5029058;28;20139;-81
2022/07/07 06:23:03;;;;;;;11.48;6.97;;;;;;;16.61;74.60;98927.00;5032283;28;20037;-81
2022/07/07 06:25:28;;;;;;;5.80;4.60;;;;;;;17.03;73.53;98940.56;5031702;28;20036;-81
2022/07/07 06:27:54;;;;;;;5.35;4.50;;;;;;;16.92;73.11;98906.72;5029094;28;21975;-81
2022/07/07 06:30:20;;;;;;;8.88;7.45;;;;;;;16.82;75.41;98933.75;5013043;28;20485;-81
2022/07/07 06:32:46;;;;;;;7.78;5.25;;;;;;;16.80;74.29;98918.97;5028832;28;20396;-81
2022/07/07 06:35:12;;;;;;;10.85;7.85;;;;;;;16.87;75.76;98935.59;5025674;28;20026;-81
2022/07/07 06:37:38;;;;;;;5.57;4.90;;;;;;;16.94;74.06;98930.69;5027704;28;20036;-81
2022/07/07 06:40:04;;;;;;;7.15;5.30;;;;;;;16.85;74.46;98919.72;5025623;28;20026;-81
2022/07/07 06:42:29;;;;;;;8.60;6.55;;;;;;;16.62;75.42;98925.13;5029319;28;20029;-81
2022/07/07 06:44:55;;;;;;;6.55;5.55;;;;;;;16.93;73.98;98926.38;5030286;28;20029;-81
2022/07/07 06:47:21;;;;;;;6.13;5.43;;;;;;;16.86;73.87;98907.06;5026014;28;20040;-80
2022/07/07 06:49:46;;;;;;;5.97;5.38;;;;;;;16.85;74.68;98925.13;5027848;28;20021;-81
2022/07/07 06:52:12;;;;;;;7.03;5.38;;;;;;;16.87;73.80;98906.75;5028873;28;20029;-81
2022/07/07 06:54:38;;;;;;;7.07;5.13;;;;;;;16.85;74.29;98913.53;5029693;28;20091;-80
2022/07/07 06:57:05;;;;;;;10.70;6.35;;;;;;;16.56;75.73;98916.25;5029681;28;20425;-80
2022/07/07 06:59:31;;;;;;;11.43;6.00;;;;;;;16.63;74.99;98916.72;5046644;28;20396;-80
2022/07/07 07:01:56;;;;;;;6.15;5.30;;;;;;;16.73;74.89;98930.09;5019207;28;20112;-80
2022/07/07 07:04:22;;;;;;;7.57;5.68;;;;;;;16.67;74.46;98908.88;5029771;28;20035;-80
2022/07/07 07:06:47;;;;;;;5.85;5.25;;;;;;;16.68;74.86;98919.38;5008827;28;20070;-80
2022/07/07 07:09:13;;;;;;;7.03;5.30;;;;;;;16.62;74.39;98912.41;5027045;28;21264;-81
2022/07/07 07:11:38;;;;;;;9.10;5.30;;;;;;;16.54;74.90;98902.28;5010884;28;20095;-80
2022/07/07 07:14:04;;;;;;;8.85;5.40;;;;;;;16.71;74.48;98920.72;5023885;28;20041;-81
2022/07/07 07:16:30;;;;;;;8.25;6.10;;;;;;;16.84;74.00;98915.41;5027019;28;20524;-80
2022/07/07 07:18:55;;;;;;;8.35;6.03;;;;;;;16.81;74.21;98920.59;5028457;28;20090;-80
2022/07/07 07:21:21;;;;;;;5.78;5.18;;;;;;;16.58;75.57;98899.81;5024258;28;20550;-81
2022/07/07 07:23:47;;;;;;;7.00;6.40;;;;;;;16.78;74.42;98903.09;5019640;28;20049;-80
2022/07/07 07:26:12;;;;;;;5.75;5.22;;;;;;;17.01;73.90;98902.28;5026079;28;20021;-80
2022/07/07 07:28:38;;;;;;;5.70;4.95;;;;;;;16.93;74.83;98910.19;5010209;28;20072;-81
2022/07/07 07:31:04;;;;;;;8.75;4.55;;;;;;;17.02;74.31;98908.47;5027931;28;20044;-81
2022/07/07 07:33:30;;;;;;;8.15;5.13;;;;;;;17.06;74.28;98913.00;5028514;28;20037;-81
2022/07/07 07:35:57;;;;;;;6.10;5.13;;;;;;;16.94;75.19;98892.94;5029082;28;20448;-81
2022/07/07 07:38:22;;;;;;;7.43;5.68;;;;;;;17.11;75.19;98917.53;5028440;28;20026;-81
2022/07/07 07:40:47;;;;;;;6.25;4.90;;;;;;;17.21;74.67;98909.31;5006283;28;20048;-81
2022/07/07 07:43:13;;;;;;;9.38;5.40;;;;;;;17.08;75.11;98926.22;5028048;28;20025;-82
2022/07/07 07:45:38;;;;;;;5.43;4.90;;;;;;;16.99;76.00;98907.13;5027143;28;20452;-83
2022/07/07 07:48:04;;;;;;;7.28;5.60;;;;;;;17.09;74.91;98911.63;5010219;28;20071;-83
2022/07/07 07:50:31;;;;;;;9.27;5.78;;;;;;;16.94;75.81;98903.72;5029654;28;20021;-83
2022/07/07 07:52:57;;;;;;;10.75;5.78;;;;;;;16.95;76.64;98932.28;5027409;28;20028;-83
2022/07/07 07:55:24;;;;;;;6.18;5.40;;;;;;;17.04;75.66;98935.94;5027901;28;20029;-82
2022/07/07 07:57:50;;;;;;;8.85;5.28;;;;;;;17.14;75.79;98941.22;4994096;28;20037;-82
2022/07/07 08:00:18;;;;;;;5.95;5.45;;;;;;;16.98;76.32;98921.72;5028751;28;20446;-82
2022/07/07 08:02:44;;;;;;;6.15;5.55;;;;;;;17.02;76.54;98916.56;5026224;28;20061;-82
2022/07/07 08:05:11;;;;;;;9.63;6.22;;;;;;;17.08;76.96;98937.00;5007545;28;20036;-82
2022/07/07 08:07:38;;;;;;;9.20;5.95;;;;;;;17.25;76.02;98940.00;5031768;28;20489;-82
2022/07/07 08:10:04;;;;;;;5.72;5.05;;;;;;;16.85;78.44;98924.31;5014246;28;20045;-81
2022/07/07 08:12:30;;;;;;;5.63;5.18;;;;;;;17.10;77.36;98940.22;5024939;28;20040;-81
2022/07/07 08:14:55;;;;;;;6.10;4.75;;;;;;;17.01;78.00;98940.03;5027288;28;20108;-81
2022/07/07 08:17:21;;;;;;;5.07;4.68;;;;;;;17.03;76.93;98923.56;5025894;28;20418;-81
2022/07/07 08:19:46;;;;;;;7.85;4.88;;;;;;;17.20;76.86;98945.47;5026582;28;20025;-81
2022/07/07 08:22:12;;;;;;;4.10;3.70;;;;;;;17.12;77.87;98929.94;5027293;28;20036;-81
2022/07/07 08:24:38;;;;;;;5.32;4.35;;;;;;;17.18;77.31;98928.75;5026003;28;20373;-81
2022/07/07 08:27:04;;;;;;;4.18;3.75;;;;;;;17.25;77.42;98937.31;5027110;28;20303;-81
2022/07/07 08:29:29;;;;;;;6.28;4.72;;;;;;;17.23;77.37;98924.09;5025127;28;20123;-81
2022/07/07 08:31:55;;;;;;;5.50;4.18;;;;;;;17.20;79.63;98913.91;5028659;28;20034;-81
2022/07/07 08:34:20;;;;;;;4.03;3.72;;;;;;;17.33;78.59;98925.06;5027332;28;20032;-82
2022/07/07 08:36:46;;;;;;;5.45;3.75;;;;;;;17.48;78.40;98930.25;5027711;28;20034;-82
2022/07/07 08:39:13;;;;;;;3.15;2.85;;;;;;;17.57;77.43;98934.75;5042445;28;20061;-81
2022/07/07 08:41:39;;;;;;;4.68;3.42;;;;;;;17.51;77.31;98922.44;5027010;28;20390;-81
2022/07/07 08:44:04;;;;;;;4.25;3.33;;;;;;;17.60;77.77;98933.38;5011393;28;20029;-82
2022/07/07 08:46:29;;;;;;;5.40;2.85;;;;;;;17.73;78.12;98941.53;5037844;28;20067;-81
2022/07/07 08:48:55;;;;;;;3.47;2.92;;;;;;;17.54;77.95;98921.81;5029538;28;20041;-81
2022/07/07 08:51:22;;;;;;;3.25;2.85;;;;;;;17.69;77.51;98935.09;5027104;28;20056;-81
2022/07/07 08:53:47;;;;;;;2.60;2.40;;;;;;;17.68;78.83;98943.50;5028115;28;20488;-81
2022/07/07 08:56:14;;;;;;;2.92;2.63;;;;;;;17.81;77.16;98953.56;5026624;28;20029;-81
2022/07/07 08:58:41;;;;;;;3.00;2.00;;;;;;;17.80;76.82;98941.94;5026713;28;20060;-81
2022/07/07 09:01:07;;;;;;;3.20;2.47;;;;;;;17.82;77.52;98942.47;5023462;28;20396;-82
2022/07/07 09:03:33;;;;;;;4.60;2.55;;;;;;;17.84;77.49;98928.69;5011028;28;20031;-82
2022/07/07 09:05:59;;;;;;;3.22;2.30;;;;;;;18.05;76.67;98946.19;5022431;28;20056;-82
2022/07/07 09:08:27;;;;;;;4.47;2.15;;;;;;;18.10;76.17;98942.59;5025046;28;20026;-82
2022/07/07 09:10:53;;;;;;;2.05;1.90;;;;;;;18.04;75.86;98943.78;5028531;28;20319;-82
2022/07/07 09:13:32;;;;;;;2.05;1.75;;;;;;;18.05;76.45;98953.47;5023569;28;20032;-82
2022/07/07 09:16:01;;;;;;;3.55;2.30;;;;;;;17.97;77.87;98939.53;5025722;28;20029;-82
2022/07/07 09:18:36;;;;;;;1.70;1.60;;;;;;;18.12;77.61;98952.00;5025810;28;20068;-81
2022/07/07 09:21:06;;;;;;;1.70;1.60;;;;;;;18.05;77.43;98954.28;5024553;28;20061;-81
2022/07/07 09:23:33;;;;;;;2.33;1.77;;;;;;;18.05;77.73;98950.75;5021730;28;20021;-81
2022/07/07 09:26:00;;;;;;;1.70;1.42;;;;;;;18.04;77.50;98949.19;5028918;28;20584;-81
2022/07/07 09:28:27;;;;;;;2.83;1.80;;;;;;;17.91;78.42;98940.72;5045812;28;20152;-83
2022/07/07 09:30:53;;;;;;;1.40;1.30;;;;;;;18.05;78.06;98966.97;5010616;28;20497;-82
2022/07/07 09:33:19;;;;;;;1.50;1.40;;;;;;;17.93;79.18;98973.63;5031154;28;20079;-82
2022/07/07 09:38:31;;;;;;;2.63;1.45;;;;;;;17.82;78.81;98974.88;5027797;28;20136;-82
2022/07/07 09:41:03;;;;;;;2.80;1.60;;;;;;;17.83;78.63;98975.69;5031517;28;20537;-82
2022/07/07 09:43:36;;;;;;;1.35;1.30;;;;;;;17.96;79.58;98988.44;5027292;28;21503;-82
2022/07/07 09:46:11;;;;;;;1.58;1.10;;;;;;;18.00;78.34;98992.16;5026499;28;20061;-82
2022/07/07 09:48:39;;;;;;;1.92;1.08;;;;;;;17.95;78.64;98976.06;5029437;28;20038;-82
2022/07/07 09:51:24;;;;;;;2.67;1.67;;;;;;;17.77;80.82;98985.75;5030659;28;20477;-82
2022/07/07 09:54:14;;;;;;;0.88;0.88;;;;;;;17.98;78.79;98995.16;5029461;28;20033;-82
2022/07/07 09:56:43;;;;;;;1.42;0.93;;;;;;;18.02;79.63;98998.06;5030686;28;20171;-82
2022/07/07 09:59:09;;;;;;;1.25;1.00;;;;;;;17.87;79.78;98988.31;5029031;28;20033;-82
2022/07/07 10:01:38;;;;;;;0.82;0.80;;;;;;;18.14;78.75;98998.44;5028012;28;20093;-81
2022/07/07 10:04:07;;;;;;;3.47;0.98;;;;;;;18.09;79.30;98995.81;5030344;28;20499;-81
2022/07/07 10:06:35;;;;;;;5.05;0.80;;;;;;;18.21;78.91;98993.47;5028793;28;20493;-81
2022/07/07 10:09:12;;;;;;;1.13;0.98;;;;;;;18.33;78.95;98996.50;5030878;28;20112;-81
2022/07/07 10:11:42;;;;;;;1.48;1.30;;;;;;;18.38;78.77;99006.44;5025371;28;20029;-81
2022/07/07 10:14:12;;;;;;;1.48;1.27;;;;;;;18.65;78.81;99003.88;5031313;28;20068;-81
2022/07/07 10:16:39;;;;;;;0.90;0.90;;;;;;;18.61;78.67;99000.13;5044118;28;20378;-81
2022/07/07 10:19:05;;;;;;;1.15;0.90;;;;;;;18.51;78.22;99011.94;5029153;28;20037;-81
2022/07/07 10:21:30;;;;;;;0.60;0.60;;;;;;;18.48;77.32;99011.69;5032421;28;20104;-81
2022/07/07 10:23:56;;;;;;;1.55;0.82;;;;;;;18.57;77.22;99018.84;5028354;28;20167;-81
2022/07/07 10:26:39;;;;;;;0.80;0.80;;;;;;;18.12;77.75;99006.03;5032165;28;20029;-81
2022/07/07 10:29:07;;;;;;;1.95;1.52;;;;;;;18.38;77.16;99033.47;5028874;28;20080;-82
2022/07/07 10:31:33;;;;;;;2.80;1.30;;;;;;;18.16;78.26;99023.25;5031384;28;20049;-81
2022/07/07 10:34:08;;;;;;;1.00;0.80;;;;;;;18.31;77.44;99016.81;5026842;28;20035;-81
2022/07/07 10:36:45;;;;;;;1.63;1.52;;;;;;;18.45;77.76;99023.13;5018726;28;20030;-81
2022/07/07 10:39:12;;;;;;;1.83;1.25;;;;;;;18.41;78.30;99012.03;5030120;28;20421;-80
2022/07/07 10:41:40;;;;;;;1.85;1.35;;;;;;;18.58;78.42;99031.28;5030270;28;20033;-81
2022/07/07 10:44:08;;;;;;;0.98;0.90;;;;;;;18.62;77.85;99026.06;5028289;28;20112;-81
2022/07/07 10:46:34;;;;;;;0.95;0.95;;;;;;;18.81;76.89;99024.13;5025571;28;20041;-81
2022/07/07 10:49:12;;;;;;;1.40;1.30;;;;;;;18.77;77.84;99027.72;5030315;28;20034;-81
2022/07/07 10:52:11;;;;;;;2.35;0.98;;;;;;;18.89;78.65;99030.75;5022121;28;20118;-81
2022/07/07 10:54:40;;;;;;;2.97;1.05;;;;;;;18.98;77.99;99037.88;5032873;28;20520;-80
2022/07/07 10:57:05;;;;;;;1.60;1.40;;;;;;;19.19;77.02;99043.72;5024827;28;20114;-81
2022/07/07 10:59:58;;;;;;;2.08;1.50;;;;;;;19.10;76.47;99053.63;5029841;28;20060;-80
2022/07/07 11:02:33;;;;;;;1.92;1.20;;;;;;;18.91;76.26;99066.41;5042848;28;20025;-81
2022/07/07 11:05:14;;;;;;;1.03;1.03;;;;;;;18.67;76.78;99064.63;5042749;28;20025;-81
2022/07/07 11:07:43;;;;;;;1.35;1.10;;;;;;;18.47;76.75;99067.69;5027498;28;20056;-81
2022/07/07 11:10:11;;;;;;;1.95;1.33;;;;;;;18.53;76.55;99071.91;5012508;28;20460;-81
2022/07/07 11:12:46;;;;;;;2.25;1.02;;;;;;;18.48;77.11;99071.16;5028277;28;20030;-81
2022/07/07 11:15:14;;;;;;;1.92;1.10;;;;;;;18.40;78.76;99072.63;5026723;28;20112;-81
2022/07/07 11:18:00;;;;;;;2.38;1.30;;;;;;;18.36;77.40;99066.19;5029160;28;20037;-80
2022/07/07 11:20:31;;;;;;;5.97;1.90;;;;;;;18.71;77.32;99070.28;5028588;28;20033;-81
2022/07/07 11:23:09;;;;;;;1.55;1.40;;;;;;;19.01;76.62;99075.16;5030918;28;20060;-80
2022/07/07 11:25:35;;;;;;;1.67;1.58;;;;;;;19.26;75.57;99085.50;5027645;28;20139;-81
2022/07/07 11:28:03;;;;;;;2.80;1.48;;;;;;;18.99;75.91;99090.06;5025712;28;20040;-80
2022/07/07 11:30:29;;;;;;;2.95;1.50;;;;;;;18.76;76.83;99102.66;5026387;28;20052;-81
2022/07/07 11:32:59;;;;;;;2.33;1.40;;;;;;;18.76;75.69;99085.63;5007300;28;20066;-81
2022/07/07 11:35:28;;;;;;;1.48;1.15;;;;;;;18.52;76.09;99096.53;5026186;28;20057;-80